Time;durP1;ratioP1;P1;durP2;ratioP2;P2;SDS_P1;SDS_P2;PMS_P1;PMS_P2;Temp;Humidity;BMP_temperature;BMP_pressure;BME280_temperature;BME280_humidity;BME280_pressure;Samples;Min_cycle;Max_cycle;Signal;HPM_P1;HPM_P2
2022/05/13 00:02:10;;;;;;;7.00;5.20;;;;;;;11.51;71.39;96805.72;5073123;28;20028;-63
2022/05/13 00:04:36;;;;;;;5.50;5.00;;;;;;;11.46;71.66;96800.66;5073370;28;20031;-63
2022/05/13 00:07:02;;;;;;;10.40;6.15;;;;;;;11.35;71.93;96798.44;5073179;28;20012;-63
2022/05/13 00:12:13;;;;;;;5.35;4.82;;;;;;;11.28;72.34;96789.09;5073478;28;20090;-63
2022/05/13 00:14:38;;;;;;;6.10;5.50;;;;;;;11.27;72.56;96802.25;5073228;28;20047;-63
2022/05/13 00:17:04;;;;;;;6.97;5.50;;;;;;;11.22;72.35;96791.94;5073205;28;20470;-63
2022/05/13 00:19:31;;;;;;;8.65;5.50;;;;;;;11.23;72.07;96798.91;5072956;28;20017;-63
2022/05/13 00:21:57;;;;;;;7.00;5.30;;;;;;;11.26;72.24;96798.78;5072914;28;20470;-63
2022/05/13 00:24:23;;;;;;;8.68;5.50;;;;;;;11.29;72.42;96795.19;5072882;28;20039;-63
2022/05/13 00:26:48;;;;;;;8.95;5.38;;;;;;;11.26;72.12;96793.56;5073095;28;20021;-63
2022/05/13 00:29:14;;;;;;;6.00;5.20;;;;;;;11.15;72.69;96795.69;5072809;28;20406;-63
2022/05/13 00:31:40;;;;;;;7.35;5.22;;;;;;;11.17;72.53;96786.03;5072891;28;20429;-64
2022/05/13 00:34:06;;;;;;;6.30;5.75;;;;;;;11.21;72.46;96785.88;5072860;28;20024;-63
2022/05/13 00:36:31;;;;;;;7.85;5.32;;;;;;;11.22;72.27;96781.47;5072888;28;20024;-63
2022/05/13 00:38:57;;;;;;;6.50;5.53;;;;;;;11.20;72.23;96783.31;5075031;28;20024;-63
2022/05/13 00:41:22;;;;;;;5.70;5.07;;;;;;;11.15;72.31;96793.94;5077003;28;20036;-62
2022/05/13 00:43:52;;;;;;;7.53;5.60;;;;;;;11.12;72.55;96784.44;5076849;28;20032;-62
2022/05/13 00:46:21;;;;;;;7.63;5.28;;;;;;;11.11;72.46;96793.19;5076840;28;20103;-63
2022/05/13 00:48:47;;;;;;;5.70;5.10;;;;;;;11.05;72.75;96796.03;5076909;28;20056;-63
2022/05/13 00:51:17;;;;;;;6.28;5.47;;;;;;;11.04;72.55;96802.19;5076843;28;20107;-63
2022/05/13 00:53:45;;;;;;;9.52;5.35;;;;;;;11.04;73.26;96801.31;5076779;28;20028;-63
2022/05/13 00:56:11;;;;;;;8.40;5.35;;;;;;;11.04;73.22;96804.78;5076671;28;20032;-63
2022/05/13 00:58:40;;;;;;;7.90;5.95;;;;;;;11.03;73.36;96810.94;5076494;28;20023;-62
2022/05/13 01:01:06;;;;;;;7.35;6.15;;;;;;;10.97;73.25;96805.91;5076522;28;20025;-63
2022/05/13 01:03:33;;;;;;;6.13;5.13;;;;;;;10.94;73.52;96809.50;5076475;28;20032;-63
2022/05/13 01:06:03;;;;;;;6.05;5.43;;;;;;;10.98;73.23;96807.63;5076431;28;20021;-64
2022/05/13 01:08:32;;;;;;;6.97;5.90;;;;;;;10.91;72.94;96806.13;5076490;28;20020;-63
2022/05/13 01:11:01;;;;;;;9.55;5.20;;;;;;;10.83;73.75;96803.78;5076242;28;20038;-62
2022/05/13 01:13:29;;;;;;;6.28;5.15;;;;;;;10.76;74.01;96804.91;5076296;28;20386;-63
2022/05/13 01:15:55;;;;;;;5.72;5.22;;;;;;;10.61;74.44;96807.16;5076440;28;20017;-62
2022/05/13 01:18:31;;;;;;;8.90;5.32;;;;;;;10.57;74.67;96801.16;5076298;28;20025;-63
2022/05/13 01:20:58;;;;;;;5.53;4.97;;;;;;;10.63;74.60;96800.09;5076267;28;20466;-63
2022/05/13 01:23:31;;;;;;;6.85;5.20;;;;;;;10.62;74.48;96790.53;5076043;28;20031;-63
2022/05/13 01:26:12;;;;;;;5.78;5.00;;;;;;;10.61;74.15;96794.94;5076118;28;20030;-63
2022/05/13 01:28:41;;;;;;;7.60;5.53;;;;;;;10.57;74.52;96795.91;5075852;28;20081;-63
2022/05/13 01:31:10;;;;;;;8.18;5.60;;;;;;;10.59;74.38;96801.09;5076087;28;20020;-62
2022/05/13 01:33:36;;;;;;;6.18;5.57;;;;;;;10.54;74.87;96801.25;5075864;28;20043;-62
2022/05/13 01:36:04;;;;;;;6.32;5.70;;;;;;;10.55;74.91;96800.38;5075945;28;20031;-63
2022/05/13 01:38:36;;;;;;;8.73;5.95;;;;;;;10.52;74.51;96800.47;5075831;28;20463;-63
2022/05/13 01:41:03;;;;;;;6.50;5.55;;;;;;;10.53;74.45;96802.16;5075849;28;20028;-63
2022/05/13 01:43:29;;;;;;;7.35;5.95;;;;;;;10.47;74.80;96797.13;5075725;28;20031;-64
2022/05/13 01:45:57;;;;;;;8.27;5.60;;;;;;;10.46;74.79;96800.66;5075752;28;20460;-63
2022/05/13 01:48:24;;;;;;;6.82;5.93;;;;;;;10.44;75.14;96797.19;5075706;28;20021;-63
2022/05/13 01:50:50;;;;;;;7.18;5.85;;;;;;;10.44;74.80;96794.59;5075594;28;20027;-64
2022/05/13 01:53:15;;;;;;;6.60;5.90;;;;;;;10.44;74.53;96792.84;5075717;28;20016;-62
2022/05/13 01:55:42;;;;;;;5.93;5.25;;;;;;;10.45;74.40;96788.47;5075523;28;20020;-62
2022/05/13 01:58:13;;;;;;;8.10;5.65;;;;;;;10.46;74.31;96790.19;5075408;28;20471;-63
2022/05/13 02:00:40;;;;;;;6.25;5.40;;;;;;;10.43;74.21;96782.44;5075624;28;20035;-63
2022/05/13 02:05:50;;;;;;;6.28;5.68;;;;;;;10.26;74.42;96780.38;5075472;28;20031;-62
2022/05/13 02:08:16;;;;;;;6.13;5.53;;;;;;;10.17;74.51;96773.72;5075238;28;20025;-62
2022/05/13 02:10:43;;;;;;;6.03;5.10;;;;;;;10.15;74.62;96776.38;5075355;28;20107;-63
2022/05/13 02:13:08;;;;;;;7.15;5.50;;;;;;;10.11;75.46;96778.22;5075352;28;20077;-62
2022/05/13 02:15:34;;;;;;;7.65;5.78;;;;;;;10.09;75.98;96782.63;5075247;28;20024;-63
2022/05/13 02:17:59;;;;;;;6.50;5.68;;;;;;;10.13;76.04;96783.38;5075326;28;20443;-63
2022/05/13 02:20:25;;;;;;;7.60;6.47;;;;;;;10.21;75.19;96783.16;5075106;28;20040;-62
2022/05/13 02:22:50;;;;;;;6.10;5.47;;;;;;;10.27;75.08;96775.09;5074881;28;20028;-62
2022/05/13 02:25:17;;;;;;;7.00;5.97;;;;;;;10.21;75.15;96773.53;5075035;28;20085;-64
2022/05/13 02:27:42;;;;;;;10.98;5.10;;;;;;;10.21;74.54;96777.91;5075018;28;20105;-64
2022/05/13 02:30:08;;;;;;;8.50;5.55;;;;;;;10.16;75.34;96774.59;5074747;28;20052;-63
2022/05/13 02:32:34;;;;;;;7.10;5.40;;;;;;;10.13;75.15;96778.16;5074791;28;20043;-63
2022/05/13 02:35:00;;;;;;;8.25;6.22;;;;;;;10.08;74.88;96783.53;5074762;28;20032;-63
2022/05/13 02:37:26;;;;;;;6.35;5.63;;;;;;;10.00;74.96;96780.31;5074662;28;20064;-62
2022/05/13 02:39:52;;;;;;;7.40;5.63;;;;;;;10.01;75.48;96778.56;5074897;28;20024;-63
2022/05/13 02:42:17;;;;;;;7.60;5.72;;;;;;;9.97;75.44;96776.03;5074812;28;20051;-62
2022/05/13 02:44:44;;;;;;;8.65;5.57;;;;;;;9.94;75.66;96775.28;5074670;28;20028;-63
2022/05/13 02:47:10;;;;;;;6.40;5.80;;;;;;;9.88;75.35;96770.25;5074521;28;20104;-63
2022/05/13 02:49:35;;;;;;;7.20;5.63;;;;;;;9.85;76.02;96769.44;5074453;28;20021;-62
2022/05/13 02:52:01;;;;;;;11.80;5.53;;;;;;;9.88;76.38;96772.88;5074613;28;20028;-62
2022/05/13 02:54:26;;;;;;;7.65;5.80;;;;;;;9.91;76.10;96778.88;5074440;28;20082;-64
2022/05/13 02:56:52;;;;;;;7.40;5.32;;;;;;;9.93;76.27;96770.97;5074306;28;20066;-63
2022/05/13 02:59:18;;;;;;;6.53;5.78;;;;;;;9.94;76.26;96770.91;5074319;28;20017;-63
2022/05/13 03:01:43;;;;;;;10.38;5.95;;;;;;;9.93;75.55;96771.81;5073549;28;20103;-63
2022/05/13 03:04:09;;;;;;;7.15;6.00;;;;;;;9.84;75.50;96774.72;5074195;28;20032;-63
2022/05/13 03:06:35;;;;;;;6.90;5.57;;;;;;;9.91;75.95;96785.84;5074308;28;20016;-64
2022/05/13 03:09:02;;;;;;;7.80;5.72;;;;;;;9.99;75.95;96789.91;5074003;28;20025;-63
2022/05/13 03:11:27;;;;;;;6.70;5.57;;;;;;;9.98;75.49;96788.22;5074157;28;20113;-63
2022/05/13 03:13:53;;;;;;;6.55;5.30;;;;;;;9.99;75.56;96795.16;5073956;28;20116;-63
2022/05/13 03:16:23;;;;;;;6.97;5.70;;;;;;;9.99;75.51;96789.91;5074045;28;20111;-63
2022/05/13 03:18:53;;;;;;;5.55;4.97;;;;;;;10.04;75.16;96796.75;5074010;28;20036;-62
2022/05/13 03:21:19;;;;;;;8.85;5.32;;;;;;;10.08;74.28;96793.13;5073911;28;20480;-64
2022/05/13 03:23:45;;;;;;;5.68;5.15;;;;;;;10.06;74.77;96792.34;5073753;28;20069;-63
2022/05/13 03:26:13;;;;;;;8.07;5.18;;;;;;;10.01;74.55;96795.09;5073845;28;20028;-64
2022/05/13 03:28:39;;;;;;;7.70;5.55;;;;;;;10.02;74.91;96795.97;5073483;28;20430;-63
2022/05/13 03:31:05;;;;;;;7.35;5.95;;;;;;;10.07;75.55;96799.28;5073829;28;20032;-63
2022/05/13 03:33:32;;;;;;;6.90;5.45;;;;;;;10.11;74.95;96800.88;5073583;28;20029;-64
2022/05/13 03:35:58;;;;;;;9.88;5.80;;;;;;;10.10;75.19;96802.66;5073573;28;20054;-63
2022/05/13 03:38:24;;;;;;;7.50;5.72;;;;;;;10.22;75.58;96811.00;5073488;28;20032;-63
2022/05/13 03:40:49;;;;;;;7.22;5.00;;;;;;;10.24;75.55;96807.41;5073532;28;20024;-63
2022/05/13 03:43:16;;;;;;;7.55;5.65;;;;;;;10.33;75.38;96808.03;5073457;28;20024;-63
2022/05/13 03:45:42;;;;;;;6.15;5.55;;;;;;;10.60;75.98;96815.91;5073340;28;20025;-62
2022/05/13 03:48:08;;;;;;;5.65;5.05;;;;;;;11.03;74.12;96810.94;5073418;28;20044;-63
2022/05/13 03:50:37;;;;;;;6.82;4.85;;;;;;;11.55;73.46;96814.31;5073434;28;20078;-63
2022/05/13 03:53:03;;;;;;;9.30;5.65;;;;;;;12.12;71.84;96814.78;5073479;28;20359;-64
2022/05/13 03:55:30;;;;;;;6.28;4.22;;;;;;;12.72;69.67;96821.13;5073355;28;20021;-64
2022/05/13 03:57:56;;;;;;;4.43;4.03;;;;;;;13.24;67.86;96825.03;5073269;28;20059;-63
2022/05/13 04:00:23;;;;;;;4.25;3.60;;;;;;;13.76;66.09;96812.25;5073284;28;20108;-63
2022/05/13 04:02:48;;;;;;;5.75;4.20;;;;;;;14.25;64.43;96822.22;5073120;28;20020;-63
2022/05/13 04:10:58;;;;;;;6.70;3.67;;;;;;;15.71;59.80;96825.47;5073394;28;20043;-63
2022/05/13 04:16:09;;;;;;;10.35;4.03;;;;;;;16.52;57.09;96832.41;5073278;28;20043;-63
2022/05/13 04:18:41;;;;;;;4.82;3.65;;;;;;;16.83;56.59;96827.16;5073041;28;20013;-63
2022/05/13 04:21:11;;;;;;;6.13;3.60;;;;;;;17.20;55.73;96831.19;5071803;28;20025;-64
2022/05/13 04:23:39;;;;;;;4.80;4.00;;;;;;;17.49;55.04;96829.41;5072909;28;20035;-63
2022/05/13 04:26:05;;;;;;;3.78;3.40;;;;;;;17.76;54.42;96820.69;5072964;28;20264;-64
2022/05/13 04:28:31;;;;;;;4.10;3.70;;;;;;;18.10;54.26;96827.47;5072595;28;20417;-63
2022/05/13 04:31:00;;;;;;;7.65;3.80;;;;;;;18.36;53.79;96824.97;5073010;28;20036;-61
2022/05/13 04:33:26;;;;;;;7.88;4.05;;;;;;;18.67;53.52;96823.75;5072847;28;20116;-63
2022/05/13 04:35:54;;;;;;;4.28;3.85;;;;;;;19.01;52.27;96820.66;5072809;28;20103;-63
2022/05/13 04:38:19;;;;;;;5.13;3.40;;;;;;;19.28;52.21;96827.72;5072843;28;20028;-63
2022/05/13 04:40:45;;;;;;;6.25;3.13;;;;;;;19.57;51.71;96829.28;5072928;28;20017;-63
2022/05/13 04:43:11;;;;;;;4.82;3.50;;;;;;;19.92;51.65;96825.94;5072965;28;20024;-62
2022/05/13 04:45:37;;;;;;;4.00;3.60;;;;;;;20.22;51.56;96829.16;5072823;28;20041;-62
2022/05/13 04:48:16;;;;;;;4.38;3.45;;;;;;;20.48;50.20;96828.19;5072752;28;20071;-62
2022/05/13 04:50:46;;;;;;;6.80;3.65;;;;;;;20.76;49.88;96834.97;5072861;28;20103;-62
2022/05/13 04:53:14;;;;;;;4.68;3.28;;;;;;;20.98;49.80;96836.03;5072776;28;20028;-62
2022/05/13 04:55:40;;;;;;;4.97;3.35;;;;;;;21.19;48.21;96833.53;5072616;28;20043;-62
2022/05/13 04:58:06;;;;;;;5.20;3.30;;;;;;;21.25;47.49;96831.38;5072568;28;20029;-62
2022/05/13 05:00:31;;;;;;;6.45;3.22;;;;;;;21.43;46.35;96826.47;5072562;28;20031;-63
2022/05/13 05:02:57;;;;;;;4.60;3.42;;;;;;;21.68;45.78;96841.34;5072561;28;20028;-63
2022/05/13 05:05:23;;;;;;;6.57;3.88;;;;;;;21.88;46.23;96830.94;5072667;28;20052;-63
2022/05/13 05:07:49;;;;;;;3.90;3.50;;;;;;;22.07;45.18;96832.97;5072590;28;20379;-63
2022/05/13 05:10:15;;;;;;;4.75;3.58;;;;;;;22.30;44.67;96834.75;5072542;28;20021;-62
2022/05/13 05:12:41;;;;;;;3.88;3.08;;;;;;;22.57;44.61;96836.13;5072516;28;20025;-63
2022/05/13 05:15:08;;;;;;;5.15;3.72;;;;;;;22.78;45.87;96840.69;5072561;28;20108;-63
2022/05/13 05:17:34;;;;;;;4.00;3.50;;;;;;;22.94;43.62;96841.06;5072483;28;20070;-62
2022/05/13 05:20:00;;;;;;;5.30;3.08;;;;;;;23.13;44.25;96836.00;5071201;28;20111;-62
2022/05/13 05:22:26;;;;;;;6.15;3.65;;;;;;;23.33;42.33;96842.31;5072344;28;20017;-62
2022/05/13 05:24:51;;;;;;;3.63;3.13;;;;;;;23.53;42.65;96839.78;5074169;28;20025;-62
2022/05/13 05:27:17;;;;;;;4.70;3.60;;;;;;;23.80;42.15;96843.69;5076092;28;20360;-62
2022/05/13 05:29:44;;;;;;;5.60;3.58;;;;;;;24.05;43.06;96841.53;5075610;28;20132;-62
2022/05/13 05:32:10;;;;;;;5.00;2.92;;;;;;;24.20;41.74;96847.38;5074821;28;20021;-62
2022/05/13 05:34:36;;;;;;;7.25;3.28;;;;;;;24.31;43.30;96849.94;5075934;28;20390;-61
2022/05/13 05:37:02;;;;;;;3.67;3.38;;;;;;;24.52;43.86;96845.44;5075857;28;20024;-61
2022/05/13 05:39:28;;;;;;;3.88;3.47;;;;;;;24.71;43.05;96845.47;5075838;28;20049;-61
2022/05/13 05:41:54;;;;;;;5.43;3.10;;;;;;;24.86;41.65;96847.72;5075862;28;20081;-61
2022/05/13 05:44:20;;;;;;;4.07;3.42;;;;;;;24.98;41.00;96845.75;5075898;28;20036;-61
2022/05/13 05:46:46;;;;;;;6.63;3.08;;;;;;;25.08;41.05;96846.59;5075773;28;20036;-61
2022/05/13 05:49:12;;;;;;;4.60;3.25;;;;;;;25.16;39.46;96845.88;5075590;28;20025;-62
2022/05/13 05:51:37;;;;;;;5.32;3.03;;;;;;;25.30;38.87;96844.59;5075659;28;20024;-61
2022/05/13 05:59:32;;;;;;;8.75;3.55;;;;;;;25.49;38.25;96848.22;5075836;28;20398;-62
2022/05/13 06:01:58;;;;;;;7.32;3.53;;;;;;;25.80;36.75;96853.38;5075409;28;20021;-61
2022/05/13 06:04:24;;;;;;;5.70;3.45;;;;;;;26.02;36.12;96845.94;5075402;28;20031;-61
2022/05/13 06:06:50;;;;;;;4.30;3.45;;;;;;;26.27;36.71;96853.44;5075437;28;20450;-62
2022/05/13 06:09:15;;;;;;;5.97;3.22;;;;;;;26.43;36.36;96844.75;5075328;28;20116;-62
2022/05/13 06:11:41;;;;;;;4.50;3.08;;;;;;;26.56;35.57;96847.91;5075368;28;20108;-61
2022/05/13 06:14:09;;;;;;;4.47;3.47;;;;;;;26.57;36.41;96843.34;5075227;28;20025;-61
2022/05/13 06:16:35;;;;;;;5.80;3.35;;;;;;;26.54;35.49;96843.66;5075179;28;20024;-62
2022/05/13 06:19:02;;;;;;;3.42;2.85;;;;;;;26.82;35.38;96843.63;5075220;28;20039;-61
2022/05/13 06:21:33;;;;;;;7.03;3.60;;;;;;;26.88;35.43;96837.63;5075111;28;20017;-61
2022/05/13 06:23:59;;;;;;;6.80;3.25;;;;;;;27.02;35.89;96838.13;5074951;28;20385;-61
2022/05/13 06:26:25;;;;;;;8.80;3.28;;;;;;;27.16;35.91;96842.06;5075019;28;20374;-61
2022/05/13 06:28:52;;;;;;;4.80;3.25;;;;;;;27.46;35.78;96837.25;5074821;28;20091;-62
2022/05/13 06:31:20;;;;;;;7.63;3.22;;;;;;;27.69;35.18;96834.88;5074958;28;20028;-61
2022/05/13 06:33:47;;;;;;;4.85;3.45;;;;;;;27.80;34.93;96840.97;5075032;28;20120;-61
2022/05/13 06:36:13;;;;;;;10.77;3.67;;;;;;;27.82;35.67;96830.91;5073837;28;20020;-61
2022/05/13 06:38:39;;;;;;;3.60;3.08;;;;;;;28.01;34.28;96835.19;5074759;28;20036;-61
2022/05/13 06:41:05;;;;;;;5.57;3.17;;;;;;;28.08;35.34;96830.84;5074653;28;20035;-61
2022/05/13 06:43:31;;;;;;;6.43;3.08;;;;;;;28.17;35.11;96829.03;5074504;28;20119;-61
2022/05/13 06:45:57;;;;;;;4.70;3.20;;;;;;;28.36;34.39;96833.31;5074689;28;20385;-62
2022/05/13 06:48:23;;;;;;;3.35;3.08;;;;;;;28.42;34.93;96829.13;5074635;28;20033;-61
2022/05/13 06:50:49;;;;;;;6.80;3.15;;;;;;;28.46;33.75;96830.47;5074390;28;20023;-62
2022/05/13 06:53:17;;;;;;;6.72;3.22;;;;;;;28.45;34.33;96838.72;5074424;28;20103;-62
2022/05/13 06:55:45;;;;;;;5.18;3.20;;;;;;;28.31;34.19;96832.13;5074349;28;20070;-61
2022/05/13 06:58:12;;;;;;;5.18;3.95;;;;;;;28.16;34.55;96829.19;5074423;28;20032;-61
2022/05/13 07:00:38;;;;;;;3.58;3.22;;;;;;;28.19;34.90;96824.34;5074317;28;20099;-61
2022/05/13 07:03:04;;;;;;;7.68;3.15;;;;;;;28.33;35.00;96825.59;5074137;28;20112;-60
2022/05/13 07:05:30;;;;;;;6.10;2.90;;;;;;;28.68;34.84;96822.78;5074384;28;20024;-61
2022/05/13 07:07:56;;;;;;;7.93;3.40;;;;;;;28.48;33.50;96817.69;5074298;28;20441;-61
2022/05/13 07:10:22;;;;;;;5.72;3.67;;;;;;;28.67;35.12;96821.09;5074082;28;20187;-61
2022/05/13 07:12:48;;;;;;;7.75;3.50;;;;;;;29.03;33.30;96819.09;5074153;28;20112;-61
2022/05/13 07:15:17;;;;;;;3.90;3.47;;;;;;;29.32;33.01;96829.38;5074099;28;20021;-61
2022/05/13 07:17:43;;;;;;;6.43;3.60;;;;;;;29.47;33.89;96817.88;5073891;28;20039;-61
2022/05/13 07:20:11;;;;;;;5.28;3.15;;;;;;;29.42;32.23;96823.78;5073857;28;20261;-61
2022/05/13 07:22:37;;;;;;;9.45;3.80;;;;;;;29.51;33.22;96819.22;5073817;28;20063;-62
2022/05/13 07:25:04;;;;;;;7.40;4.13;;;;;;;29.54;33.13;96821.56;5073835;28;20060;-61
2022/05/13 07:27:30;;;;;;;6.85;3.70;;;;;;;29.70;34.09;96820.69;5073825;28;20025;-61
2022/05/13 07:29:56;;;;;;;13.00;3.70;;;;;;;29.77;32.81;96821.69;5073481;28;20081;-61
2022/05/13 07:32:21;;;;;;;8.05;3.60;;;;;;;29.72;33.08;96821.38;5073740;28;20032;-61
2022/05/13 07:34:47;;;;;;;9.45;4.07;;;;;;;29.73;31.97;96812.28;5073691;28;20071;-61
2022/05/13 07:37:13;;;;;;;6.72;3.90;;;;;;;29.82;32.69;96806.84;5073745;28;20035;-61
2022/05/13 07:42:23;;;;;;;6.32;4.47;;;;;;;30.07;31.88;96818.34;5073423;28;20128;-61
2022/05/13 07:44:48;;;;;;;8.50;4.20;;;;;;;30.26;31.69;96811.75;5073510;28;20103;-61
2022/05/13 07:47:17;;;;;;;9.57;3.80;;;;;;;30.45;31.81;96812.28;5073254;28;20035;-62
2022/05/13 07:49:43;;;;;;;13.07;3.80;;;;;;;30.16;30.54;96808.44;5073381;28;20020;-62
2022/05/13 07:52:09;;;;;;;9.60;4.05;;;;;;;29.88;32.35;96814.22;5073334;28;20028;-62
2022/05/13 07:54:35;;;;;;;10.48;4.28;;;;;;;29.87;31.76;96808.03;5073320;28;20024;-62
2022/05/13 07:57:02;;;;;;;12.57;4.03;;;;;;;29.82;29.61;96814.94;5073370;28;20025;-62
2022/05/13 07:59:28;;;;;;;7.10;3.70;;;;;;;29.72;28.55;96816.00;5073285;28;20486;-62
2022/05/13 08:01:54;;;;;;;7.25;3.47;;;;;;;29.51;29.63;96808.44;5073261;28;20497;-62
2022/05/13 08:04:20;;;;;;;8.82;3.88;;;;;;;29.05;29.66;96811.72;5073081;28;20123;-62
2022/05/13 08:06:45;;;;;;;6.40;3.83;;;;;;;28.82;32.71;96807.81;5073177;28;20059;-62
2022/05/13 08:09:12;;;;;;;13.23;4.18;;;;;;;28.70;30.51;96809.16;5073122;28;20117;-62
2022/05/13 08:11:37;;;;;;;9.23;4.30;;;;;;;28.92;32.96;96807.63;5073089;28;20016;-62
2022/05/13 08:14:04;;;;;;;10.07;4.30;;;;;;;29.13;33.76;96815.25;5073113;28;20020;-62
2022/05/13 08:16:29;;;;;;;10.57;4.00;;;;;;;29.18;30.01;96816.56;5073178;28;20028;-62
2022/05/13 08:19:02;;;;;;;12.05;4.28;;;;;;;29.31;33.62;96814.19;5073002;28;20509;-62
2022/05/13 08:21:27;;;;;;;11.45;4.43;;;;;;;29.31;32.63;96808.00;5073037;28;20033;-62
2022/05/13 08:23:53;;;;;;;6.63;3.47;;;;;;;29.38;32.73;96807.13;5072894;28;20032;-62
2022/05/13 08:26:18;;;;;;;6.85;3.67;;;;;;;29.51;32.79;96806.59;5072978;28;20383;-62
2022/05/13 08:28:45;;;;;;;14.70;4.07;;;;;;;29.10;33.05;96817.41;5072838;28;20076;-62
2022/05/13 08:31:13;;;;;;;15.27;4.78;;;;;;;29.34;31.33;96810.31;5073037;28;20047;-62
2022/05/13 08:33:40;;;;;;;8.98;4.20;;;;;;;29.46;32.24;96818.88;5072876;28;20037;-62
2022/05/13 08:36:06;;;;;;;9.07;4.32;;;;;;;29.20;32.31;96818.06;5072935;28;20347;-62
2022/05/13 08:38:37;;;;;;;9.65;3.70;;;;;;;29.54;30.56;96804.56;5072869;28;20409;-62
2022/05/13 08:41:13;;;;;;;8.32;4.22;;;;;;;29.90;31.22;96804.13;5073051;28;20051;-62
2022/05/13 08:43:49;;;;;;;7.97;3.80;;;;;;;29.82;31.07;96809.53;5072807;28;20032;-62
2022/05/13 08:46:38;;;;;;;7.35;3.15;;;;;;;29.84;30.07;96807.53;5072961;28;20032;-62
2022/05/13 08:49:23;;;;;;;6.45;3.42;;;;;;;29.76;31.16;96806.53;5072913;28;20033;-62
2022/05/13 08:55:01;;;;;;;5.70;3.67;;;;;;;29.50;29.40;96806.78;5072964;28;20042;-62
2022/05/13 08:57:31;;;;;;;6.43;2.88;;;;;;;29.48;30.52;96798.00;5072754;28;20013;-62
2022/05/13 09:00:11;;;;;;;6.90;2.80;;;;;;;29.50;30.38;96801.38;5074788;28;20031;-62
2022/05/13 09:02:40;;;;;;;4.47;2.67;;;;;;;29.46;30.49;96800.03;5076664;28;20028;-62
2022/05/13 09:05:25;;;;;;;8.73;3.10;;;;;;;29.42;30.09;96798.69;5076573;28;20112;-62
2022/05/13 09:07:51;;;;;;;3.50;2.83;;;;;;;29.29;29.41;96796.53;5076464;28;20025;-62
2022/05/13 09:10:17;;;;;;;7.38;3.38;;;;;;;29.23;29.74;96793.50;5076415;28;20059;-62
2022/05/13 09:12:50;;;;;;;4.53;3.00;;;;;;;28.94;30.72;96805.66;5075192;28;20098;-62
2022/05/13 09:15:37;;;;;;;4.07;3.38;;;;;;;28.86;30.46;96787.63;5076410;28;20025;-62
2022/05/13 09:18:23;;;;;;;4.85;3.20;;;;;;;28.93;31.57;96787.84;5075053;28;20028;-62
2022/05/13 09:20:55;;;;;;;5.63;3.00;;;;;;;28.81;32.04;96787.31;5076305;28;20024;-62
2022/05/13 09:23:21;;;;;;;4.45;2.88;;;;;;;28.87;31.15;96783.09;5076002;28;20029;-62
2022/05/13 09:26:08;;;;;;;7.90;3.10;;;;;;;28.99;29.30;96787.13;5076148;28;20020;-62
2022/05/13 09:28:36;;;;;;;8.75;2.83;;;;;;;28.82;30.82;96771.97;5075848;28;20494;-62
2022/05/13 09:31:21;;;;;;;4.43;2.92;;;;;;;28.79;30.82;96769.63;5075948;28;20497;-62
2022/05/13 09:33:49;;;;;;;4.22;3.03;;;;;;;28.95;30.36;96772.34;5076010;28;20150;-62
2022/05/13 09:36:23;;;;;;;11.77;3.40;;;;;;;28.93;30.50;96773.50;5076008;28;20033;-62
2022/05/13 09:39:01;;;;;;;6.60;3.08;;;;;;;28.84;30.88;96760.03;5075918;28;20092;-62
2022/05/13 09:41:35;;;;;;;6.57;2.97;;;;;;;28.91;31.72;96764.75;5075896;28;20028;-62
2022/05/13 09:44:25;;;;;;;7.97;3.08;;;;;;;29.04;32.45;96759.72;5075701;28;20043;-62
2022/05/13 09:47:11;;;;;;;5.90;2.85;;;;;;;29.35;29.77;96752.75;5075714;28;20090;-62
2022/05/13 09:49:46;;;;;;;7.10;2.88;;;;;;;29.40;29.97;96755.75;5075814;28;20462;-62
2022/05/13 09:52:25;;;;;;;5.32;2.80;;;;;;;29.32;29.03;96747.72;5075850;28;20035;-62
2022/05/13 09:54:52;;;;;;;4.57;3.20;;;;;;;29.03;29.14;96749.97;5075688;28;20025;-62
2022/05/13 09:57:34;;;;;;;5.03;3.22;;;;;;;28.98;29.98;96745.09;5075574;28;20016;-62
2022/05/13 10:00:02;;;;;;;8.13;3.00;;;;;;;28.84;30.75;96745.75;5075479;28;20036;-62
2022/05/13 10:02:35;;;;;;;5.63;3.10;;;;;;;28.70;29.72;96736.50;5075454;28;20035;-62
2022/05/13 10:05:21;;;;;;;7.70;3.05;;;;;;;28.81;29.62;96735.34;5075498;28;20433;-62
2022/05/13 10:07:53;;;;;;;6.60;2.90;;;;;;;28.73;29.73;96738.88;5075434;28;20028;-62
2022/05/13 10:16:33;;;;;;;5.25;2.70;;;;;;;28.63;31.88;96737.19;5075416;28;20058;-62
2022/05/13 10:19:12;;;;;;;4.57;2.88;;;;;;;28.79;28.88;96731.97;5075224;28;20032;-62
2022/05/13 10:21:47;;;;;;;5.32;2.72;;;;;;;28.58;27.65;96728.78;5075121;28;20020;-62
2022/05/13 10:24:33;;;;;;;5.45;2.97;;;;;;;28.45;28.38;96721.22;5075128;28;20029;-62
2022/05/13 10:27:01;;;;;;;3.67;2.70;;;;;;;28.18;32.12;96714.28;5075069;28;20079;-62
2022/05/13 10:29:37;;;;;;;5.45;2.95;;;;;;;28.24;31.81;96713.63;5074683;28;20427;-62
2022/05/13 10:32:11;;;;;;;4.20;2.90;;;;;;;28.33;30.26;96720.72;5074893;28;20035;-62
2022/05/13 10:34:41;;;;;;;4.47;3.10;;;;;;;28.26;32.21;96704.38;5074872;28;20017;-62
2022/05/13 10:37:13;;;;;;;5.65;2.97;;;;;;;28.45;30.90;96709.63;5074989;28;20027;-62
2022/05/13 10:39:51;;;;;;;2.97;2.67;;;;;;;28.58;29.64;96701.03;5074893;28;20465;-62
2022/05/13 10:42:29;;;;;;;9.13;3.00;;;;;;;28.65;30.84;96699.34;5074854;28;20040;-62
2022/05/13 10:45:33;;;;;;;5.28;2.88;;;;;;;28.75;27.90;96700.00;5074760;28;20039;-62
2022/05/13 10:48:30;;;;;;;5.65;2.85;;;;;;;28.50;28.09;96691.13;5071821;28;20054;-62
2022/05/13 10:51:17;;;;;;;5.15;2.88;;;;;;;28.20;28.01;96690.75;5074605;28;20028;-62
2022/05/13 10:53:48;;;;;;;2.90;2.40;;;;;;;27.80;28.21;96687.81;5074563;28;20024;-62
2022/05/13 10:56:51;;;;;;;6.50;2.97;;;;;;;27.10;28.76;96685.19;5074498;28;20037;-62
2022/05/13 10:59:16;;;;;;;4.05;2.95;;;;;;;26.86;29.28;96671.44;5074323;28;20474;-61
2022/05/13 11:02:20;;;;;;;6.15;2.85;;;;;;;27.16;29.71;96672.97;5074528;28;20064;-62
2022/05/13 11:04:56;;;;;;;3.20;2.55;;;;;;;27.21;28.23;96670.66;5074244;28;20025;-61
2022/05/13 11:07:27;;;;;;;3.17;2.17;;;;;;;27.15;28.61;96665.91;5074379;28;20020;-61
2022/05/13 11:09:57;;;;;;;2.67;2.47;;;;;;;27.27;29.74;96669.16;5074032;28;20020;-61
2022/05/13 11:12:26;;;;;;;4.72;2.88;;;;;;;27.36;28.86;96663.66;5073997;28;20036;-62
2022/05/13 11:15:20;;;;;;;4.32;2.70;;;;;;;27.35;30.31;96658.44;5074076;28;20032;-62
2022/05/13 11:18:45;;;;;;;3.97;2.20;;;;;;;27.45;28.24;96655.66;5074014;28;20343;-62
2022/05/13 11:21:22;;;;;;;3.45;2.42;;;;;;;27.45;29.63;96652.97;5031936;28;20063;-62
2022/05/13 11:27:05;;;;;;;6.70;2.78;;;;;;;27.54;32.17;96643.91;5066937;28;20059;-62
2022/05/13 11:29:37;;;;;;;4.40;2.63;;;;;;;27.72;29.08;96638.44;5073568;28;20143;-62
2022/05/13 11:32:26;;;;;;;5.57;2.80;;;;;;;27.61;28.66;96638.72;5073729;28;20389;-61
2022/05/13 11:35:19;;;;;;;3.50;2.35;;;;;;;27.17;28.87;96634.38;5073796;28;20055;-61
2022/05/13 11:37:46;;;;;;;3.38;2.63;;;;;;;27.23;29.93;96631.06;5073515;28;20029;-62
2022/05/13 11:40:18;;;;;;;4.93;2.60;;;;;;;27.24;29.50;96624.69;5073541;28;20043;-62
2022/05/13 11:43:20;;;;;;;2.80;2.47;;;;;;;27.39;32.72;96624.88;5073526;28;20466;-62
2022/05/13 11:46:25;;;;;;;4.03;3.00;;;;;;;27.47;29.52;96613.34;5073418;28;20051;-62
2022/05/13 11:48:55;;;;;;;3.72;2.30;;;;;;;27.61;30.99;96614.56;5062938;28;20063;-62
2022/05/13 11:51:24;;;;;;;7.38;2.60;;;;;;;27.70;30.89;96610.06;5073456;28;20105;-62
2022/05/13 11:54:14;;;;;;;4.10;2.42;;;;;;;27.74;31.42;96604.22;5073311;28;20032;-62
2022/05/13 11:56:45;;;;;;;;;;;;;;;28.00;29.74;96605.88;5073795;28;20036;-62
2022/05/13 11:59:31;;;;;;;3.53;2.92;;;;;;;28.00;29.45;96599.69;5073400;28;19913;-62
2022/05/13 12:02:12;;;;;;;6.18;3.13;;;;;;;27.78;28.88;96601.19;5073469;28;20021;-61
2022/05/13 12:05:00;;;;;;;7.53;2.60;;;;;;;27.72;27.73;96592.78;5073156;28;20117;-62
2022/05/13 12:07:29;;;;;;;4.90;2.47;;;;;;;27.80;29.60;96589.25;5073074;28;20398;-61
2022/05/13 12:09:58;;;;;;;3.67;2.30;;;;;;;27.84;31.92;96595.97;5073191;28;20028;-63
2022/05/13 12:12:27;;;;;;;10.07;2.60;;;;;;;28.04;31.27;96586.75;5073151;28;20466;-63
2022/05/13 12:15:08;;;;;;;2.60;1.98;;;;;;;27.97;29.30;96581.22;5073147;28;20020;-63
2022/05/13 12:17:48;;;;;;;5.90;2.50;;;;;;;27.78;27.17;96579.69;5073197;28;20033;-63
2022/05/13 12:20:22;;;;;;;3.97;2.92;;;;;;;27.66;28.98;96568.44;5073045;28;20029;-63
2022/05/13 12:23:08;;;;;;;10.25;2.30;;;;;;;27.84;29.38;96570.97;5072934;28;20059;-63